Decoded Metar for YLIS ( in ) (IATA:) | Meteo·Mobile Aviation Weather
aviador You're here:

YLIS Decoded Metar

in
Report Time2018-09-26 05:00:00
UTC Time2018-09-26 05:24:25
Flight Rules vfr VFR
Wind060° at 10 kt
W.Decomp.*RWY 15: 10 kt LCW
W.Rank060° ranks 14
Current wind is above 060° avg. (8.5)
Visibility9999 m
Phenomena:N/A
Clouds:Scattered 042 Hf
Scattered 054 Hf
Broken 100 Hf
Expected CloudBase > 3,200 ft AGL from Temp-Dew spread
Ceiling10,000 ft
Temp20°C
Dew Point12°C (60% RH)
AAT17.0°C
QNH1017 hPa
Raw Report
METAR YLIS 260500Z AUTO 06010KT 9999 // SCT042 SCT054 BKN100 20/12 Q1017=

Extra information for YLIS:More info

Social comments